sensor_id;sensor_type;location;lat;lon;timestamp;pressure;altitude;pressure_sealevel;temperature;humidity
2549;BME280;1284;53.520;10.248;2023-05-11T00:01:42;100690.16;;;16.41;88.66
2549;BME280;1284;53.520;10.248;2023-05-11T00:04:08;100690.56;;;16.29;89.23
2549;BME280;1284;53.520;10.248;2023-05-11T00:06:33;100697.16;;;16.32;89.30
2549;BME280;1284;53.520;10.248;2023-05-11T00:08:59;100701.38;;;16.40;89.17
2549;BME280;1284;53.520;10.248;2023-05-11T00:11:27;100700.22;;;16.44;89.28
2549;BME280;1284;53.520;10.248;2023-05-11T00:13:52;100699.50;;;16.30;89.63
2549;BME280;1284;53.520;10.248;2023-05-11T00:16:18;100699.50;;;16.19;90.04
2549;BME280;1284;53.520;10.248;2023-05-11T00:18:43;100697.16;;;16.21;90.18
2549;BME280;1284;53.520;10.248;2023-05-11T00:21:09;100695.19;;;16.32;89.99
2549;BME280;1284;53.520;10.248;2023-05-11T00:23:34;100698.28;;;16.38;89.61
2549;BME280;1284;53.520;10.248;2023-05-11T00:26:00;100696.38;;;16.31;89.81
2549;BME280;1284;53.520;10.248;2023-05-11T00:28:25;100697.16;;;16.24;90.71
2549;BME280;1284;53.520;10.248;2023-05-11T00:30:57;100700.63;;;16.36;90.11
2549;BME280;1284;53.520;10.248;2023-05-11T00:33:23;100705.28;;;16.39;89.53
2549;BME280;1284;53.520;10.248;2023-05-11T00:35:49;100701.38;;;16.47;89.41
2549;BME280;1284;53.520;10.248;2023-05-11T00:38:15;100710.69;;;16.46;88.97
2549;BME280;1284;53.520;10.248;2023-05-11T00:40:41;100695.19;;;16.39;88.54
2549;BME280;1284;53.520;10.248;2023-05-11T00:43:06;100700.25;;;16.41;88.81
2549;BME280;1284;53.520;10.248;2023-05-11T00:45:32;100704.50;;;16.42;88.43
2549;BME280;1284;53.520;10.248;2023-05-11T00:47:58;100701.38;;;16.40;88.05
2549;BME280;1284;53.520;10.248;2023-05-11T00:50:24;100694.81;;;16.26;88.68
2549;BME280;1284;53.520;10.248;2023-05-11T00:52:49;100694.44;;;16.35;88.48
2549;BME280;1284;53.520;10.248;2023-05-11T00:55:18;100702.97;;;16.34;88.48
2549;BME280;1284;53.520;10.248;2023-05-11T00:57:46;100697.53;;;16.34;88.53
2549;BME280;1284;53.520;10.248;2023-05-11T01:00:12;100698.31;;;16.34;88.17
2549;BME280;1284;53.520;10.248;2023-05-11T01:02:38;100697.91;;;16.36;88.31
2549;BME280;1284;53.520;10.248;2023-05-11T01:05:04;100695.56;;;16.38;88.13
2549;BME280;1284;53.520;10.248;2023-05-11T01:07:42;100699.44;;;16.40;88.19
2549;BME280;1284;53.520;10.248;2023-05-11T01:15:52;100699.88;;;16.32;88.53
2549;BME280;1284;53.520;10.248;2023-05-11T01:18:37;100698.31;;;16.34;88.76
2549;BME280;1284;53.520;10.248;2023-05-11T01:21:12;100699.06;;;16.38;88.68
2549;BME280;1284;53.520;10.248;2023-05-11T01:31:52;100702.97;;;16.26;88.97
2549;BME280;1284;53.520;10.248;2023-05-11T01:34:21;100703.75;;;16.31;88.45
2549;BME280;1284;53.520;10.248;2023-05-11T01:36:56;100702.59;;;16.35;88.45
2549;BME280;1284;53.520;10.248;2023-05-11T01:39:33;100704.50;;;16.38;88.49
2549;BME280;1284;53.520;10.248;2023-05-11T01:42:06;100697.53;;;16.34;88.42
2549;BME280;1284;53.520;10.248;2023-05-11T01:44:33;100697.53;;;16.34;87.92
2549;BME280;1284;53.520;10.248;2023-05-11T01:47:00;100708.41;;;16.34;87.92
2549;BME280;1284;53.520;10.248;2023-05-11T01:49:26;100701.03;;;16.31;87.88
2549;BME280;1284;53.520;10.248;2023-05-11T01:51:52;100710.34;;;16.22;88.19
2549;BME280;1284;53.520;10.248;2023-05-11T01:54:19;100709.59;;;16.25;88.00
2549;BME280;1284;53.520;10.248;2023-05-11T01:56:46;100709.19;;;16.16;88.27
2549;BME280;1284;53.520;10.248;2023-05-11T01:59:16;100716.59;;;16.12;88.40
2549;BME280;1284;53.520;10.248;2023-05-11T02:01:43;100717.38;;;16.13;88.74
2549;BME280;1284;53.520;10.248;2023-05-11T02:04:10;100720.88;;;16.03;89.18
2549;BME280;1284;53.520;10.248;2023-05-11T02:06:36;100717.38;;;16.09;89.13
2549;BME280;1284;53.520;10.248;2023-05-11T02:09:03;100724.75;;;16.16;89.03
2549;BME280;1284;53.520;10.248;2023-05-11T02:11:32;100727.84;;;16.11;89.31
2549;BME280;1284;53.520;10.248;2023-05-11T02:13:59;100731.31;;;16.18;89.08
2549;BME280;1284;53.520;10.248;2023-05-11T02:16:27;100732.09;;;16.22;88.60
2549;BME280;1284;53.520;10.248;2023-05-11T02:18:54;100732.53;;;16.14;88.91
2549;BME280;1284;53.520;10.248;2023-05-11T02:21:26;100732.91;;;16.19;88.86
2549;BME280;1284;53.520;10.248;2023-05-11T02:23:52;100725.13;;;16.21;88.67
2549;BME280;1284;53.520;10.248;2023-05-11T02:26:19;100733.28;;;16.21;88.85
2549;BME280;1284;53.520;10.248;2023-05-11T02:28:44;100742.59;;;16.27;88.58
2549;BME280;1284;53.520;10.248;2023-05-11T02:31:15;100737.16;;;16.27;88.35
2549;BME280;1284;53.520;10.248;2023-05-11T02:33:43;100733.28;;;16.21;88.63
2549;BME280;1284;53.520;10.248;2023-05-11T02:36:14;100736.00;;;16.18;88.97
2549;BME280;1284;53.520;10.248;2023-05-11T02:38:42;100731.72;;;16.20;88.95
2549;BME280;1284;53.520;10.248;2023-05-11T02:41:13;100732.09;;;16.22;88.69
2549;BME280;1284;53.520;10.248;2023-05-11T02:43:45;100727.09;;;16.00;88.99
2549;BME280;1284;53.520;10.248;2023-05-11T02:46:19;100737.94;;;16.03;90.03
2549;BME280;1284;53.520;10.248;2023-05-11T02:48:49;100730.97;;;16.02;89.89
2549;BME280;1284;53.520;10.248;2023-05-11T02:51:18;100741.81;;;16.13;89.38
2549;BME280;1284;53.520;10.248;2023-05-11T02:53:49;100731.34;;;16.15;89.58
2549;BME280;1284;53.520;10.248;2023-05-11T02:56:16;100741.84;;;16.09;89.48
2549;BME280;1284;53.520;10.248;2023-05-11T02:58:42;100739.50;;;16.08;89.51
2549;BME280;1284;53.520;10.248;2023-05-11T03:01:21;100741.84;;;16.09;89.61
2549;BME280;1284;53.520;10.248;2023-05-11T03:03:47;100741.03;;;16.12;89.57
2549;BME280;1284;53.520;10.248;2023-05-11T03:06:13;100742.19;;;16.18;89.53
2549;BME280;1284;53.520;10.248;2023-05-11T03:08:41;100743.78;;;16.16;89.00
2549;BME280;1284;53.520;10.248;2023-05-11T03:11:08;100740.28;;;16.08;89.29
2549;BME280;1284;53.520;10.248;2023-05-11T03:13:34;100733.31;;;16.00;89.50
2549;BME280;1284;53.520;10.248;2023-05-11T03:16:02;100748.03;;;16.03;89.36
2549;BME280;1284;53.520;10.248;2023-05-11T03:18:32;100737.94;;;15.86;90.28
2549;BME280;1284;53.520;10.248;2023-05-11T03:21:01;100744.16;;;15.86;90.43
2549;BME280;1284;53.520;10.248;2023-05-11T03:23:29;100745.34;;;15.92;90.30
2549;BME280;1284;53.520;10.248;2023-05-11T03:25:56;100741.84;;;15.95;89.79
2549;BME280;1284;53.520;10.248;2023-05-11T03:28:23;100740.28;;;15.98;89.71
2549;BME280;1284;53.520;10.248;2023-05-11T03:30:58;100744.53;;;15.95;89.61
2549;BME280;1284;53.520;10.248;2023-05-11T03:33:24;100739.50;;;15.97;89.83
2549;BME280;1284;53.520;10.248;2023-05-11T03:35:50;100741.84;;;15.95;89.43
2549;BME280;1284;53.520;10.248;2023-05-11T03:38:21;100736.00;;;15.93;89.45
2549;BME280;1284;53.520;10.248;2023-05-11T03:40:51;100743.38;;;15.89;89.82
2549;BME280;1284;53.520;10.248;2023-05-11T03:43:21;100744.16;;;15.90;89.60
2549;BME280;1284;53.520;10.248;2023-05-11T03:45:49;100741.06;;;15.81;90.30
2549;BME280;1284;53.520;10.248;2023-05-11T03:48:18;100742.22;;;15.66;90.50
2549;BME280;1284;53.520;10.248;2023-05-11T03:50:45;100735.63;;;15.63;90.82
2549;BME280;1284;53.520;10.248;2023-05-11T03:53:11;100736.41;;;15.64;90.70
2549;BME280;1284;53.520;10.248;2023-05-11T03:55:37;100746.47;;;15.70;91.10
2549;BME280;1284;53.520;10.248;2023-05-11T03:58:09;100739.88;;;15.78;91.18
2549;BME280;1284;53.520;10.248;2023-05-11T04:00:40;100746.09;;;15.82;90.79
2549;BME280;1284;53.520;10.248;2023-05-11T04:03:07;100736.41;;;15.88;90.60
2549;BME280;1284;53.520;10.248;2023-05-11T04:05:33;100742.59;;;15.85;90.54
2549;BME280;1284;53.520;10.248;2023-05-11T04:08:02;100751.13;;;15.87;90.49
2549;BME280;1284;53.520;10.248;2023-05-11T04:10:28;100741.44;;;15.90;90.34
2549;BME280;1284;53.520;10.248;2023-05-11T04:12:53;100749.97;;;15.95;89.88
2549;BME280;1284;53.520;10.248;2023-05-11T04:15:19;100746.88;;;16.00;89.73
2549;BME280;1284;53.520;10.248;2023-05-11T04:17:46;100760.44;;;15.97;89.51
2549;BME280;1284;53.520;10.248;2023-05-11T04:20:12;100759.69;;;15.82;90.30
2549;BME280;1284;53.520;10.248;2023-05-11T04:22:39;100744.56;;;15.88;90.35
2549;BME280;1284;53.520;10.248;2023-05-11T04:25:05;100753.06;;;15.83;90.50
2549;BME280;1284;53.520;10.248;2023-05-11T04:27:33;100755.81;;;15.90;90.17
2549;BME280;1284;53.520;10.248;2023-05-11T04:30:00;100761.63;;;15.92;90.22
2549;BME280;1284;53.520;10.248;2023-05-11T04:32:27;100755.03;;;16.00;90.02
2549;BME280;1284;53.520;10.248;2023-05-11T04:34:54;100769.38;;;15.94;89.61
2549;BME280;1284;53.520;10.248;2023-05-11T04:37:22;100767.47;;;15.94;89.64
2549;BME280;1284;53.520;10.248;2023-05-11T04:39:49;100765.13;;;15.96;89.35
2549;BME280;1284;53.520;10.248;2023-05-11T04:42:15;100760.47;;;15.93;89.51
2549;BME280;1284;53.520;10.248;2023-05-11T04:44:42;100760.84;;;15.92;89.93
2549;BME280;1284;53.520;10.248;2023-05-11T04:47:08;100761.63;;;15.92;89.91
2549;BME280;1284;53.520;10.248;2023-05-11T04:49:33;100772.09;;;15.76;90.17
2549;BME280;1284;53.520;10.248;2023-05-11T04:51:59;100765.13;;;15.82;90.41
2549;BME280;1284;53.520;10.248;2023-05-11T04:54:25;100766.69;;;15.87;90.01
2549;BME280;1284;53.520;10.248;2023-05-11T04:56:50;100774.44;;;15.92;90.13
2549;BME280;1284;53.520;10.248;2023-05-11T04:59:15;100770.16;;;16.01;89.59
2549;BME280;1284;53.520;10.248;2023-05-11T05:01:41;100761.22;;;15.97;89.92
2549;BME280;1284;53.520;10.248;2023-05-11T05:04:07;100770.16;;;16.05;89.67
2549;BME280;1284;53.520;10.248;2023-05-11T05:06:32;100772.88;;;16.01;89.84
2549;BME280;1284;53.520;10.248;2023-05-11T05:08:58;100776.00;;;15.93;90.10
2549;BME280;1284;53.520;10.248;2023-05-11T05:11:24;100769.78;;;15.89;90.53
2549;BME280;1284;53.520;10.248;2023-05-11T05:13:49;100767.44;;;15.98;90.88
2549;BME280;1284;53.520;10.248;2023-05-11T05:16:15;100777.56;;;16.04;90.82
2549;BME280;1284;53.520;10.248;2023-05-11T05:18:41;100776.75;;;16.07;90.42
2549;BME280;1284;53.520;10.248;2023-05-11T05:21:08;100780.66;;;16.10;90.92
2549;BME280;1284;53.520;10.248;2023-05-11T05:23:34;100776.38;;;16.16;90.55
2549;BME280;1284;53.520;10.248;2023-05-11T05:25:59;100771.31;;;16.14;90.59
2549;BME280;1284;53.520;10.248;2023-05-11T05:28:25;100771.69;;;16.16;90.84
2549;BME280;1284;53.520;10.248;2023-05-11T05:30:50;100776.75;;;16.07;91.06
2549;BME280;1284;53.520;10.248;2023-05-11T05:33:17;100776.38;;;16.12;91.20
2549;BME280;1284;53.520;10.248;2023-05-11T05:35:43;100785.31;;;16.20;91.03
2549;BME280;1284;53.520;10.248;2023-05-11T05:38:10;100787.63;;;16.21;91.41
2549;BME280;1284;53.520;10.248;2023-05-11T05:40:36;100784.53;;;16.16;91.52
2549;BME280;1284;53.520;10.248;2023-05-11T05:43:04;100789.19;;;16.19;91.82
2549;BME280;1284;53.520;10.248;2023-05-11T05:45:30;100788.41;;;16.18;91.50
2549;BME280;1284;53.520;10.248;2023-05-11T05:47:56;100786.47;;;16.22;91.60
2549;BME280;1284;53.520;10.248;2023-05-11T05:50:23;100795.41;;;16.19;91.32
2549;BME280;1284;53.520;10.248;2023-05-11T05:52:53;100797.34;;;16.19;91.43
2549;BME280;1284;53.520;10.248;2023-05-11T05:55:22;100797.31;;;16.22;91.38
2549;BME280;1284;53.520;10.248;2023-05-11T05:57:49;100800.44;;;16.24;91.59
2549;BME280;1284;53.520;10.248;2023-05-11T06:00:14;100797.34;;;16.30;91.24
2549;BME280;1284;53.520;10.248;2023-05-11T06:02:40;100801.59;;;16.41;90.99
2549;BME280;1284;53.520;10.248;2023-05-11T06:05:09;100806.66;;;16.50;90.55
2549;BME280;1284;53.520;10.248;2023-05-11T06:07:35;100798.88;;;16.41;90.74
2549;BME280;1284;53.520;10.248;2023-05-11T06:10:01;100814.03;;;16.39;91.18
2549;BME280;1284;53.520;10.248;2023-05-11T06:12:28;100812.47;;;16.38;91.06
2549;BME280;1284;53.520;10.248;2023-05-11T06:14:55;100818.66;;;16.42;91.32
2549;BME280;1284;53.520;10.248;2023-05-11T06:17:20;100815.94;;;16.42;91.21
2549;BME280;1284;53.520;10.248;2023-05-11T06:19:49;100822.19;;;16.39;91.42
2549;BME280;1284;53.520;10.248;2023-05-11T06:22:21;100823.34;;;16.38;91.60
2549;BME280;1284;53.520;10.248;2023-05-11T06:24:47;100816.75;;;16.35;91.80
2549;BME280;1284;53.520;10.248;2023-05-11T06:27:13;100821.41;;;16.38;91.62
2549;BME280;1284;53.520;10.248;2023-05-11T06:29:39;100814.44;;;16.34;92.21
2549;BME280;1284;53.520;10.248;2023-05-11T06:32:06;100823.72;;;16.36;92.22
2549;BME280;1284;53.520;10.248;2023-05-11T06:34:32;100817.91;;;16.31;92.83
2549;BME280;1284;53.520;10.248;2023-05-11T06:36:59;100817.53;;;16.28;93.04
2549;BME280;1284;53.520;10.248;2023-05-11T06:39:27;100822.56;;;16.30;93.48
2549;BME280;1284;53.520;10.248;2023-05-11T06:41:53;100826.44;;;16.36;93.66
2549;BME280;1284;53.520;10.248;2023-05-11T06:44:18;100817.16;;;16.34;93.83
2549;BME280;1284;53.520;10.248;2023-05-11T06:46:44;100829.59;;;16.49;93.02
2549;BME280;1284;53.520;10.248;2023-05-11T06:49:10;100827.59;;;16.46;93.59
2549;BME280;1284;53.520;10.248;2023-05-11T06:51:36;100823.34;;;16.41;93.92
2549;BME280;1284;53.520;10.248;2023-05-11T06:54:01;100829.53;;;16.42;94.24
2549;BME280;1284;53.520;10.248;2023-05-11T06:56:27;100826.44;;;16.40;94.49
2549;BME280;1284;53.520;10.248;2023-05-11T06:58:53;100822.97;;;16.43;94.23
2549;BME280;1284;53.520;10.248;2023-05-11T07:01:19;100834.97;;;16.42;94.81
2549;BME280;1284;53.520;10.248;2023-05-11T07:03:44;100827.63;;;16.42;94.89
2549;BME280;1284;53.520;10.248;2023-05-11T07:06:13;100838.88;;;16.48;94.70
2549;BME280;1284;53.520;10.248;2023-05-11T07:08:38;100833.03;;;16.46;95.22
2549;BME280;1284;53.520;10.248;2023-05-11T07:11:06;100831.91;;;16.54;94.91
2549;BME280;1284;53.520;10.248;2023-05-11T07:13:32;100827.63;;;16.60;94.73
2549;BME280;1284;53.520;10.248;2023-05-11T07:15:57;100834.63;;;16.57;95.01
2549;BME280;1284;53.520;10.248;2023-05-11T07:18:23;100828.03;;;16.58;94.96
2549;BME280;1284;53.520;10.248;2023-05-11T07:23:34;100831.50;;;16.62;94.76
2549;BME280;1284;53.520;10.248;2023-05-11T07:25:59;100831.91;;;16.64;94.73
2549;BME280;1284;53.520;10.248;2023-05-11T07:28:25;100828.41;;;16.60;94.95
2549;BME280;1284;53.520;10.248;2023-05-11T07:30:50;100830.31;;;16.67;95.12
2549;BME280;1284;53.520;10.248;2023-05-11T07:33:16;100831.88;;;16.68;94.97
2549;BME280;1284;53.520;10.248;2023-05-11T07:35:41;100838.06;;;16.79;94.73
2549;BME280;1284;53.520;10.248;2023-05-11T07:38:06;100828.75;;;16.76;94.72
2549;BME280;1284;53.520;10.248;2023-05-11T07:40:34;100838.09;;;16.75;94.74
2549;BME280;1284;53.520;10.248;2023-05-11T07:42:59;100841.97;;;16.74;94.89
2549;BME280;1284;53.520;10.248;2023-05-11T07:45:25;100843.13;;;16.77;94.92
2549;BME280;1284;53.520;10.248;2023-05-11T07:47:50;100836.53;;;16.78;94.97
2549;BME280;1284;53.520;10.248;2023-05-11T07:50:16;100841.97;;;16.81;94.75
2549;BME280;1284;53.520;10.248;2023-05-11T07:52:41;100840.81;;;16.79;94.86
2549;BME280;1284;53.520;10.248;2023-05-11T07:55:07;100843.53;;;16.79;94.75
2549;BME280;1284;53.520;10.248;2023-05-11T07:57:32;100841.56;;;16.83;94.54
2549;BME280;1284;53.520;10.248;2023-05-11T07:59:58;100845.84;;;16.84;94.49
2549;BME280;1284;53.520;10.248;2023-05-11T08:02:23;100849.72;;;16.83;94.70
2549;BME280;1284;53.520;10.248;2023-05-11T08:04:49;100845.47;;;16.82;94.71
2549;BME280;1284;53.520;10.248;2023-05-11T08:07:14;100848.19;;;16.85;94.66
2549;BME280;1284;53.520;10.248;2023-05-11T08:09:40;100849.72;;;16.86;94.98
2549;BME280;1284;53.520;10.248;2023-05-11T08:12:05;100844.25;;;16.90;95.01
2549;BME280;1284;53.520;10.248;2023-05-11T08:14:31;100852.03;;;16.88;95.04
2549;BME280;1284;53.520;10.248;2023-05-11T08:19:42;100858.66;;;16.87;95.64
2549;BME280;1284;53.520;10.248;2023-05-11T08:22:07;100854.41;;;16.86;95.93
2549;BME280;1284;53.520;10.248;2023-05-11T08:24:33;100856.69;;;16.98;95.70
2549;BME280;1284;53.520;10.248;2023-05-11T08:26:58;100849.31;;;16.95;95.71
2549;BME280;1284;53.520;10.248;2023-05-11T08:29:24;100842.72;;;16.92;95.80
2549;BME280;1284;53.520;10.248;2023-05-11T08:31:52;100854.00;;;16.91;95.99
2549;BME280;1284;53.520;10.248;2023-05-11T08:34:17;100855.53;;;16.99;95.73
2549;BME280;1284;53.520;10.248;2023-05-11T08:36:43;100853.59;;;16.92;96.00
2549;BME280;1284;53.520;10.248;2023-05-11T08:39:08;100862.94;;;16.95;96.03
2549;BME280;1284;53.520;10.248;2023-05-11T08:41:34;100861.75;;;16.92;96.14
2549;BME280;1284;53.520;10.248;2023-05-11T08:44:00;100851.28;;;16.91;96.04
2549;BME280;1284;53.520;10.248;2023-05-11T08:46:29;100857.50;;;16.91;96.29
2549;BME280;1284;53.520;10.248;2023-05-11T08:48:55;100860.19;;;16.88;96.57
2549;BME280;1284;53.520;10.248;2023-05-11T08:51:22;100855.16;;;16.90;96.38
2549;BME280;1284;53.520;10.248;2023-05-11T08:53:48;100856.69;;;16.94;96.52
2549;BME280;1284;53.520;10.248;2023-05-11T08:56:14;100861.75;;;16.96;96.70
2549;BME280;1284;53.520;10.248;2023-05-11T08:58:40;100861.38;;;16.97;96.83
2549;BME280;1284;53.520;10.248;2023-05-11T09:01:09;100855.13;;;17.04;96.85
2549;BME280;1284;53.520;10.248;2023-05-11T09:03:35;100856.69;;;17.05;96.96
2549;BME280;1284;53.520;10.248;2023-05-11T09:06:02;100860.19;;;17.09;97.19
2549;BME280;1284;53.520;10.248;2023-05-11T09:08:30;100864.41;;;17.13;97.02
2549;BME280;1284;53.520;10.248;2023-05-11T09:10:56;100865.59;;;17.16;97.43
2549;BME280;1284;53.520;10.248;2023-05-11T09:13:21;100862.47;;;17.25;97.32
2549;BME280;1284;53.520;10.248;2023-05-11T09:15:48;100867.47;;;17.33;96.92
2549;BME280;1284;53.520;10.248;2023-05-11T09:18:14;100862.78;;;17.37;97.29
2549;BME280;1284;53.520;10.248;2023-05-11T09:20:42;100863.53;;;17.48;97.12
2549;BME280;1284;53.520;10.248;2023-05-11T09:23:08;100861.97;;;17.54;97.14
2549;BME280;1284;53.520;10.248;2023-05-11T09:25:34;100865.88;;;17.53;96.68
2549;BME280;1284;53.520;10.248;2023-05-11T09:30:25;100871.25;;;17.64;96.59
2549;BME280;1284;53.520;10.248;2023-05-11T09:35:41;100877.50;;;17.61;95.31
2549;BME280;1284;53.520;10.248;2023-05-11T09:38:11;100873.25;;;17.56;95.83
2549;BME280;1284;53.520;10.248;2023-05-11T09:40:48;100877.91;;;17.59;95.54
2549;BME280;1284;53.520;10.248;2023-05-11T09:43:17;100872.47;;;17.59;95.95
2549;BME280;1284;53.520;10.248;2023-05-11T09:45:47;100882.94;;;17.61;95.85
2549;BME280;1284;53.520;10.248;2023-05-11T09:50:50;100883.00;;;17.50;96.08
2549;BME280;1284;53.520;10.248;2023-05-11T09:53:16;100880.28;;;17.43;96.42
2549;BME280;1284;53.520;10.248;2023-05-11T09:55:54;100876.00;;;17.49;96.47
2549;BME280;1284;53.520;10.248;2023-05-11T09:58:20;100877.91;;;17.52;96.20
2549;BME280;1284;53.520;10.248;2023-05-11T10:00:50;100876.75;;;17.57;96.34
2549;BME280;1284;53.520;10.248;2023-05-11T10:03:15;100873.25;;;17.56;96.92
2549;BME280;1284;53.520;10.248;2023-05-11T10:05:55;100873.22;;;17.63;96.60
2549;BME280;1284;53.520;10.248;2023-05-11T10:08:30;100884.47;;;17.69;96.25
2549;BME280;1284;53.520;10.248;2023-05-11T10:10:56;100882.94;;;17.64;96.25
2549;BME280;1284;53.520;10.248;2023-05-11T10:13:25;100872.84;;;17.58;96.33
2549;BME280;1284;53.520;10.248;2023-05-11T10:15:51;100867.00;;;17.56;96.57
2549;BME280;1284;53.520;10.248;2023-05-11T10:18:18;100874.00;;;17.60;96.98
2549;BME280;1284;53.520;10.248;2023-05-11T10:20:44;100869.69;;;17.66;96.81
2549;BME280;1284;53.520;10.248;2023-05-11T10:25:58;100872.38;;;17.73;97.03
2549;BME280;1284;53.520;10.248;2023-05-11T10:28:25;100866.50;;;17.82;96.72
2549;BME280;1284;53.520;10.248;2023-05-11T10:30:51;100866.84;;;17.87;96.79
2549;BME280;1284;53.520;10.248;2023-05-11T10:33:17;100861.81;;;17.86;97.05
2549;BME280;1284;53.520;10.248;2023-05-11T10:35:44;100860.22;;;17.85;96.97
2549;BME280;1284;53.520;10.248;2023-05-11T10:38:11;100866.47;;;17.85;96.85
2549;BME280;1284;53.520;10.248;2023-05-11T10:40:39;100857.50;;;17.85;97.13
2549;BME280;1284;53.520;10.248;2023-05-11T10:46:21;100861.72;;;17.96;97.17
2549;BME280;1284;53.520;10.248;2023-05-11T11:03:10;100857.31;;;18.17;96.83
2549;BME280;1284;53.520;10.248;2023-05-11T11:05:35;100862.69;;;18.24;96.78
2549;BME280;1284;53.520;10.248;2023-05-11T11:08:04;100859.16;;;18.30;96.49
2549;BME280;1284;53.520;10.248;2023-05-11T11:10:41;100855.19;;;18.38;96.23
2549;BME280;1284;53.520;10.248;2023-05-11T11:13:14;100851.25;;;18.46;96.32
2549;BME280;1284;53.520;10.248;2023-05-11T11:18:29;100866.28;;;18.65;96.05
2549;BME280;1284;53.520;10.248;2023-05-11T11:20:56;100859.13;;;18.78;95.72
2549;BME280;1284;53.520;10.248;2023-05-11T11:23:47;100852.34;;;18.93;96.51
2549;BME280;1284;53.520;10.248;2023-05-11T11:26:16;100858.41;;;19.11;96.32
2549;BME280;1284;53.520;10.248;2023-05-11T11:31:32;100859.75;;;19.33;94.25
2549;BME280;1284;53.520;10.248;2023-05-11T11:39:27;100860.38;;;19.44;91.77
2549;BME280;1284;53.520;10.248;2023-05-11T11:42:03;100863.09;;;19.44;90.55
2549;BME280;1284;53.520;10.248;2023-05-11T11:44:28;100861.94;;;19.42;90.05
2549;BME280;1284;53.520;10.248;2023-05-11T11:47:16;100861.09;;;19.48;89.89
2549;BME280;1284;53.520;10.248;2023-05-11T11:49:44;100863.28;;;19.60;90.14
2549;BME280;1284;53.520;10.248;2023-05-11T11:52:11;100865.50;;;19.69;90.09
2549;BME280;1284;53.520;10.248;2023-05-11T11:54:38;100874.59;;;19.89;89.65
2549;BME280;1284;53.520;10.248;2023-05-11T12:00:02;100872.34;;;20.11;88.90
2549;BME280;1284;53.520;10.248;2023-05-11T12:02:40;100864.13;;;20.11;88.16
2549;BME280;1284;53.520;10.248;2023-05-11T12:05:17;100860.91;;;20.16;87.98
2549;BME280;1284;53.520;10.248;2023-05-11T12:07:52;100870.25;;;20.22;88.19
2549;BME280;1284;53.520;10.248;2023-05-11T12:10:19;100866.34;;;20.19;87.69
2549;BME280;1284;53.520;10.248;2023-05-11T12:12:46;100866.66;;;20.25;87.42
2549;BME280;1284;53.520;10.248;2023-05-11T12:15:28;100868.09;;;20.33;87.29
2549;BME280;1284;53.520;10.248;2023-05-11T12:17:57;100879.84;;;20.56;86.71
2549;BME280;1284;53.520;10.248;2023-05-11T12:20:22;100861.53;;;20.73;85.68
2549;BME280;1284;53.520;10.248;2023-05-11T12:22:49;100864.88;;;20.84;85.33
2549;BME280;1284;53.520;10.248;2023-05-11T12:25:15;100867.53;;;20.88;84.59
2549;BME280;1284;53.520;10.248;2023-05-11T12:27:59;100864.94;;;20.81;84.01
2549;BME280;1284;53.520;10.248;2023-05-11T12:30:33;100866.25;;;20.73;84.02
2549;BME280;1284;53.520;10.248;2023-05-11T12:32:59;100867.63;;;20.84;84.32
2549;BME280;1284;53.520;10.248;2023-05-11T12:35:27;100863.03;;;20.78;84.58
2549;BME280;1284;53.520;10.248;2023-05-11T12:37:54;100863.81;;;20.78;84.63
2549;BME280;1284;53.520;10.248;2023-05-11T12:40:20;100859.13;;;20.79;84.49
2549;BME280;1284;53.520;10.248;2023-05-11T12:42:52;100856.38;;;20.79;84.27
2549;BME280;1284;53.520;10.248;2023-05-11T12:45:18;100861.16;;;20.75;83.40
2549;BME280;1284;53.520;10.248;2023-05-11T12:47:48;100859.16;;;20.75;83.01
2549;BME280;1284;53.520;10.248;2023-05-11T12:50:14;100860.13;;;20.88;83.54
2549;BME280;1284;53.520;10.248;2023-05-11T12:52:39;100851.50;;;21.09;83.23
2549;BME280;1284;53.520;10.248;2023-05-11T12:55:05;100851.91;;;21.27;83.06
2549;BME280;1284;53.520;10.248;2023-05-11T12:57:30;100846.41;;;21.47;82.16
2549;BME280;1284;53.520;10.248;2023-05-11T13:02:52;100853.56;;;21.61;80.50
2549;BME280;1284;53.520;10.248;2023-05-11T13:05:23;100841.06;;;21.60;80.12
2549;BME280;1284;53.520;10.248;2023-05-11T13:10:23;100836.63;;;21.66;79.73
2549;BME280;1284;53.520;10.248;2023-05-11T13:15:20;100833.13;;;21.65;79.04
2549;BME280;1284;53.520;10.248;2023-05-11T13:17:46;100837.59;;;21.75;78.64
2549;BME280;1284;53.520;10.248;2023-05-11T13:20:19;100834.38;;;21.80;78.59
2549;BME280;1284;53.520;10.248;2023-05-11T13:22:46;100835.22;;;21.93;78.29
2549;BME280;1284;53.520;10.248;2023-05-11T13:25:19;100836.00;;;21.94;78.66
2549;BME280;1284;53.520;10.248;2023-05-11T13:27:45;100839.97;;;21.93;77.98
2549;BME280;1284;53.520;10.248;2023-05-11T13:30:10;100835.91;;;21.81;78.02
2549;BME280;1284;53.520;10.248;2023-05-11T13:32:37;100835.16;;;21.81;78.36
2549;BME280;1284;53.520;10.248;2023-05-11T13:35:03;100829.47;;;21.88;78.25
2549;BME280;1284;53.520;10.248;2023-05-11T13:37:29;100824.69;;;21.92;78.36
2549;BME280;1284;53.520;10.248;2023-05-11T13:39:54;100824.69;;;21.92;78.10
2549;BME280;1284;53.520;10.248;2023-05-11T13:42:20;100828.31;;;21.89;77.98
2549;BME280;1284;53.520;10.248;2023-05-11T13:44:45;100817.06;;;21.83;77.56
2549;BME280;1284;53.520;10.248;2023-05-11T13:47:11;100817.53;;;21.78;77.99
2549;BME280;1284;53.520;10.248;2023-05-11T13:49:36;100818.47;;;21.72;77.72
2549;BME280;1284;53.520;10.248;2023-05-11T13:52:02;100808.25;;;21.72;77.83
2549;BME280;1284;53.520;10.248;2023-05-11T13:54:28;100809.03;;;21.73;78.60
2549;BME280;1284;53.520;10.248;2023-05-11T13:56:56;100799.44;;;21.65;78.66
2549;BME280;1284;53.520;10.248;2023-05-11T13:59:29;100799.44;;;21.65;78.96
2549;BME280;1284;53.520;10.248;2023-05-11T14:01:54;100799.34;;;21.68;79.39
2549;BME280;1284;53.520;10.248;2023-05-11T14:04:19;100798.50;;;21.71;79.91
2549;BME280;1284;53.520;10.248;2023-05-11T14:06:45;100804.09;;;21.68;79.58
2549;BME280;1284;53.520;10.248;2023-05-11T14:09:10;100796.75;;;21.81;79.41
2549;BME280;1284;53.520;10.248;2023-05-11T14:11:36;100802.41;;;21.90;79.59